Summersville, WV

4:23 AM EST on February 12, 2016 (GMT -0500)
Summersville | | Change Station
CLOSE
Current Station
Personal Weather Station
Location: Summersville, WV
Elevation: 1932 ft
Nearby Weather Stations
Active Advisory: Wind Chill Advisory

Elev 1932 ft 38.30 °N, 80.84 °W | Updated 6 minutes ago

Clear
Clear
-2.6 °F
Feels Like -3 °F
N
0.0
Wind Variable Wind from NNE

Today
High -- | Low -- °F
--% Chance of Precip.
Yesterday
High -- | Low -- °F
Precip. -- in
Pressure 30.26 in
Visibility 10.0 miles
Clouds Few 10000 ft
Windchill -3 °F
Dew Point -5 °F
Humidity 89%
Rainfall 0.00 in
Snow Depth Not available.
7:17 AM 5:57 PM
Waxing Crescent, 19% visible
METAR KBKW 120851Z AUTO 12003KT 10SM FEW100 M12/M17 A3010 RMK AO2 SLP246 T11221167 58013 TSNO
Pressure 30.26 in
Visibility 10.0 miles
Clouds Few 10000 ft
Windchill -3 °F
Dew Point -5 °F
Humidity 89%
Rainfall 0.00 in
Snow Depth Not available.
7:17 AM 5:57 PM
Waxing Crescent, 19% visible
METAR KBKW 120851Z AUTO 12003KT 10SM FEW100 M12/M17 A3010 RMK AO2 SLP246 T11221167 58013 TSNO

10-Day Weather Forecast

Almanac

Astronomy

Feb. 12, 2016 Rise Set
Actual Time
Civil Twilight
Nautical Twilight
Astronomical Twilight
Moon
Length of Visible Light
Length of Day
Tomorrow will be .
, % of the Moon is Illuminated

Today's Extremes

State Highs State Lows

Community

WunderPhotos

Upload Photos

1,892,286 photos uploaded!

WunderBlog® & News

Nearby

Air Quality

  Air Quality AQ Index Pollutant
Not available.

Snow Depth

Station Depth Elevation

Earthquake Activity

City Distance Mag. Time & Date
Minimum magnitude displayed is 2.5.

Coastal Water Temperatures

Place Temperature

Stations

Nearby Weather Stations

Station Location Temp. Windchill Dew Point Humidity Wind Precip. Elev Updated Type
                   

Watches & Warnings

Wind Chill Advisory
Issued: 3:49 AM EST Feb. 12, 2016 – National Weather Service

... Wind Chill Advisory in effect from midnight tonight to 9 am
EST Sunday...

The National Weather Service in Charleston has issued a Wind
Chill Advisory... which is in effect from midnight tonight to 9 am
EST Sunday.

* Wind chill readings... 10 to 15 below zero.

* Timing... late tonight through Saturday night.

* Impacts... frost bite and hypothermia are possible if precautions
are not taken.

* Winds... northwest 15 to 25 mph with gusts up to 45 mph tonight.
Somewhat lower wind gusts during the day on Saturday. Winds
diminish Saturday night.

* Temperatures... single digits with below zero readings in the
higher elevations late tonight... recovering into the lower teens
on Saturday. Temperatures falling into the zero to 5 below range
Saturday night.

Precautionary/preparedness actions...

A Wind Chill Advisory means that very cold air and strong winds
will combine to generate low wind chills. This will result in
frost bite and lead to hypothermia if precautions are not taken.
If you must venture outdoors... make sure you wear a hat and
gloves.